Time,TemperatureF,DewpointF,PressureIn,WindDirection,WindDirectionDegrees,WindSpeedMPH,WindSpeedGustMPH,Humidity,HourlyPrecipIn,Conditions,Clouds,dailyrainin,SolarRadiationWatts/m^2,SoftwareType,DateUTC
2013-10-03 00:01:00,42.4,-99.9,30.00,SW,231,0.0,0.0,96,0.00,,,0.00,0.03,,2013-10-03 05:01:00,
2013-10-03 00:11:00,41.9,-99.9,29.99,SW,230,0.0,0.0,97,0.00,,,0.00,0.02,,2013-10-03 05:11:00,
2013-10-03 00:21:00,41.9,-99.9,29.99,SW,230,0.0,0.0,97,0.00,,,0.00,0.017,,2013-10-03 05:21:00,
2013-10-03 00:31:00,41.6,-99.9,29.99,NW,306,0.0,0.0,97,0.00,,,0.00,0.037,,2013-10-03 05:31:00,
2013-10-03 00:41:00,41.8,-99.9,29.99,ENE,70,0.0,0.0,97,0.00,,,0.00,0.041,,2013-10-03 05:41:00,
2013-10-03 00:51:00,41.8,-99.9,29.99,ENE,59,0.0,0.0,97,0.00,,,0.00,0.017,,2013-10-03 05:51:00,
2013-10-03 01:01:00,41.0,-99.9,29.98,ENE,59,0.0,0.0,97,0.00,,,0.00,0.01,,2013-10-03 06:01:00,
2013-10-03 01:11:00,41.0,-99.9,29.98,NW,323,0.0,0.0,97,0.00,,,0.00,0.041,,2013-10-03 06:11:00,
2013-10-03 01:21:00,40.7,-99.9,29.98,WSW,248,0.0,0.0,97,0.00,,,0.00,0.027,,2013-10-03 06:21:00,
2013-10-03 01:31:00,40.2,-99.9,29.98,WSW,248,0.0,0.0,98,0.00,,,0.00,0.071,,2013-10-03 06:31:00,
2013-10-03 01:41:00,40.2,-99.9,29.97,WSW,249,0.0,0.0,98,0.00,,,0.00,0.03,,2013-10-03 06:41:00,
2013-10-03 01:51:00,39.9,-99.9,29.97,WSW,249,0.0,0.0,98,0.00,,,0.00,0.091,,2013-10-03 06:51:00,
2013-10-03 02:01:00,39.5,-99.9,29.97,WSW,249,0.0,0.0,98,0.00,,,0.00,0.027,,2013-10-03 07:01:00,
2013-10-03 02:11:00,39.5,-99.9,29.98,SW,224,1.0,2.1,98,0.00,,,0.00,0.047,,2013-10-03 07:11:00,
2013-10-03 02:21:00,39.9,-99.9,29.99,WSW,247,0.0,0.0,98,0.00,,,0.00,0.102,,2013-10-03 07:21:00,
2013-10-03 02:31:00,40.7,-99.9,29.99,East,95,0.0,0.0,98,0.00,,,0.00,0.044,,2013-10-03 07:31:00,
2013-10-03 02:41:00,41.2,-99.9,29.98,East,95,0.0,0.0,98,0.00,,,0.00,0.064,,2013-10-03 07:41:00,
2013-10-03 02:51:00,41.5,-99.9,29.98,NNW,348,0.0,0.0,98,0.00,,,0.00,0.027,,2013-10-03 07:51:00,
2013-10-03 03:01:00,41.8,-99.9,29.97,North,8,0.0,2.1,98,0.00,,,0.00,0,,2013-10-03 08:01:00,
2013-10-03 03:11:00,41.9,-99.9,29.97,NW,316,0.0,0.0,97,0.00,,,0.00,0.014,,2013-10-03 08:11:00,
2013-10-03 03:21:00,42.1,-99.9,29.96,NE,56,0.0,0.0,97,0.00,,,0.00,0.017,,2013-10-03 08:21:00,
2013-10-03 03:31:00,42.3,-99.9,29.97,NNW,331,0.0,0.0,97,0.00,,,0.00,0,,2013-10-03 08:31:00,
2013-10-03 03:41:00,42.4,-99.9,29.96,ENE,58,0.0,2.1,97,0.00,,,0.00,0.007,,2013-10-03 08:41:00,
2013-10-03 03:51:00,42.7,-99.9,29.97,ENE,74,0.0,0.0,97,0.00,,,0.00,0.01,,2013-10-03 08:51:00,
2013-10-03 04:01:00,42.9,-99.9,29.97,NE,48,0.0,0.0,96,0.00,,,0.00,0.003,,2013-10-03 09:01:00,
2013-10-03 04:11:00,43.5,-99.9,29.96,ENE,60,0.0,2.1,97,0.00,,,0.00,0.014,,2013-10-03 09:11:00,
2013-10-03 04:21:00,44.0,-99.9,29.96,NE,51,2.0,3.8,96,0.00,,,0.00,0,,2013-10-03 09:21:00,
2013-10-03 04:31:00,44.6,-99.9,29.98,South,184,0.0,0.0,95,0.00,,,0.00,0,,2013-10-03 09:31:00,
2013-10-03 04:41:00,44.8,-99.9,29.97,East,88,0.0,0.0,95,0.00,,,0.00,0.003,,2013-10-03 09:41:00,
2013-10-03 04:51:00,44.8,-99.9,29.98,NW,313,0.0,2.1,95,0.00,,,0.00,0.017,,2013-10-03 09:51:00,
2013-10-03 05:01:00,44.8,-99.9,29.99,NNW,339,0.0,0.0,94,0.00,,,0.00,0.03,,2013-10-03 10:01:00,
2013-10-03 05:11:00,45.0,-99.9,29.98,NE,46,2.0,3.8,95,0.00,,,0.00,0.03,,2013-10-03 10:11:00,
2013-10-03 05:21:00,45.5,-99.9,29.96,ENE,67,1.0,3.8,94,0.00,,,0.00,0.017,,2013-10-03 10:21:00,
2013-10-03 05:31:00,45.6,-99.9,29.97,NE,48,0.0,2.1,94,0.00,,,0.00,0.007,,2013-10-03 10:31:00,
2013-10-03 05:41:00,46.6,-99.9,29.98,East,95,0.0,2.1,93,0.00,,,0.00,0.01,,2013-10-03 10:41:00,
2013-10-03 05:51:00,47.3,-99.9,29.98,ENE,58,0.0,0.0,91,0.00,,,0.00,0.007,,2013-10-03 10:51:00,
2013-10-03 06:01:00,47.6,-99.9,29.96,NE,39,0.0,0.0,91,0.00,,,0.00,0.01,,2013-10-03 11:01:00,
2013-10-03 06:11:00,48.1,-99.9,29.96,NE,36,3.0,5.4,89,0.00,,,0.00,0.01,,2013-10-03 11:11:00,
2013-10-03 06:21:00,48.1,-99.9,29.97,NW,324,1.0,3.8,89,0.00,,,0.00,0.02,,2013-10-03 11:21:00,
2013-10-03 06:31:00,48.0,-99.9,29.97,ENE,58,0.0,2.1,90,0.00,,,0.00,0,,2013-10-03 11:31:00,
2013-10-03 06:41:00,48.3,-99.9,29.98,NNE,31,1.0,3.8,89,0.00,,,0.00,0,,2013-10-03 11:41:00,
2013-10-03 06:51:00,48.4,-99.9,29.98,ENE,73,0.0,2.1,89,0.00,,,0.00,0,,2013-10-03 11:51:00,
2013-10-03 07:01:00,48.2,-99.9,29.97,ENE,75,1.0,3.8,89,0.00,,,0.00,0,,2013-10-03 12:01:00,
2013-10-03 07:11:00,48.0,-99.9,29.98,WNW,292,0.0,0.0,89,0.00,,,0.00,0.02,,2013-10-03 12:11:00,
2013-10-03 07:21:00,47.7,-99.9,30.01,WSW,240,2.0,2.1,90,0.00,,,0.00,0.2,,2013-10-03 12:21:00,
2013-10-03 07:31:00,48.1,-99.9,30.01,WNW,292,0.0,2.1,89,0.00,,,0.00,0.609,,2013-10-03 12:31:00,
2013-10-03 07:41:00,48.2,-99.9,30.02,NNW,346,1.0,2.1,88,0.00,,,0.00,1.131,,2013-10-03 12:41:00,
2013-10-03 07:51:00,47.9,-99.9,30.02,NNW,337,0.0,0.0,89,0.00,,,0.00,4.659,,2013-10-03 12:51:00,
2013-10-03 08:01:00,47.7,-99.9,30.02,NW,312,0.0,0.0,90,0.00,,,0.00,10.23,,2013-10-03 13:01:00,
2013-10-03 08:11:00,47.9,-99.9,30.04,SSW,208,0.0,0.0,90,0.00,,,0.00,7.819,,2013-10-03 13:11:00,
2013-10-03 08:21:00,47.8,-99.9,30.03,North,11,0.0,2.1,90,0.00,,,0.00,8.07,,2013-10-03 13:21:00,
2013-10-03 08:31:00,47.7,-99.9,30.02,NE,36,2.0,3.8,91,0.00,,,0.00,10.48,,2013-10-03 13:31:00,
2013-10-03 08:41:00,47.8,-99.9,30.02,North,0,1.0,5.4,90,0.00,,,0.00,22.77,,2013-10-03 13:41:00,
2013-10-03 08:51:00,47.8,-99.9,30.01,NE,40,5.0,7.1,90,0.00,,,0.00,35.24,,2013-10-03 13:51:00,
2013-10-03 09:01:00,47.7,-99.9,30.01,NE,45,4.0,5.4,90,0.00,,,0.00,30.22,,2013-10-03 14:01:00,
2013-10-03 09:11:00,48.5,-99.9,30.02,NNE,30,4.0,5.4,87,0.00,,,0.00,20.53,,2013-10-03 14:11:00,
2013-10-03 09:21:00,49.0,-99.9,30.03,ENE,74,3.0,5.4,86,0.00,,,0.00,38.04,,2013-10-03 14:21:00,
2013-10-03 09:31:00,49.4,-99.9,30.03,NNE,32,3.0,5.4,82,0.00,,,0.00,55.25,,2013-10-03 14:31:00,
2013-10-03 09:41:00,49.7,-99.9,30.03,NNW,338,6.0,8.8,80,0.00,,,0.00,58.57,,2013-10-03 14:41:00,
2013-10-03 09:51:00,49.7,-99.9,30.02,NE,51,6.0,8.8,78,0.00,,,0.00,72.84,,2013-10-03 14:51:00,
2013-10-03 10:01:00,49.5,-99.9,30.02,North,8,3.0,5.4,78,0.00,,,0.00,51.93,,2013-10-03 15:01:00,
2013-10-03 10:11:00,49.2,-99.9,30.02,NNW,347,2.0,5.4,79,0.00,,,0.00,43.16,,2013-10-03 15:11:00,
2013-10-03 10:21:00,49.0,-99.9,30.02,NNE,14,3.0,5.4,78,0.00,,,0.00,31.89,,2013-10-03 15:21:00,
2013-10-03 10:31:00,48.7,-99.9,30.02,NNE,33,2.0,5.4,79,0.00,,,0.00,29.83,,2013-10-03 15:31:00,
2013-10-03 10:41:00,48.5,-99.9,30.02,North,351,5.0,8.8,77,0.00,,,0.00,40.73,,2013-10-03 15:41:00,
2013-10-03 10:51:00,48.6,-99.9,30.02,NNW,341,3.0,5.4,79,0.00,,,0.00,52.12,,2013-10-03 15:51:00,
2013-10-03 11:01:00,48.8,-99.9,30.01,North,5,3.0,5.4,79,0.00,,,0.00,58.78,,2013-10-03 16:01:00,
2013-10-03 11:11:00,49.1,-99.9,30.02,NNE,18,2.0,7.1,78,0.00,,,0.00,47.76,,2013-10-03 16:11:00,
2013-10-03 11:21:00,49.1,-99.9,30.02,NNW,347,3.0,5.4,77,0.00,,,0.00,44.98,,2013-10-03 16:21:00,
2013-10-03 11:31:00,49.2,-99.9,30.02,NNW,335,4.0,5.4,76,0.00,,,0.00,79.71,,2013-10-03 16:31:00,
2013-10-03 11:41:00,49.5,-99.9,30.02,NNE,16,4.0,5.4,76,0.00,,,0.00,83.9,,2013-10-03 16:41:00,
2013-10-03 11:51:00,49.7,-99.9,30.01,NNE,12,6.0,10.5,75,0.00,,,0.00,92.9,,2013-10-03 16:51:00,
2013-10-03 12:01:00,50.2,-99.9,30.01,NE,39,4.0,7.1,74,0.00,,,0.00,149.5,,2013-10-03 17:01:00,
2013-10-03 12:11:00,51.0,-99.9,30.02,NE,46,4.0,7.1,75,0.00,,,0.00,100.8,,2013-10-03 17:11:00,
2013-10-03 12:21:00,51.4,-99.9,30.01,NE,52,5.0,7.1,74,0.00,,,0.00,93.9,,2013-10-03 17:21:00,
2013-10-03 12:31:00,51.6,-99.9,30.01,NE,40,3.0,7.1,73,0.00,,,0.00,100.2,,2013-10-03 17:31:00,
2013-10-03 12:41:00,51.7,-99.9,30.02,NE,50,5.0,8.8,73,0.00,,,0.00,82.6,,2013-10-03 17:41:00,
2013-10-03 12:51:00,51.8,-99.9,30.02,ENE,66,7.0,8.8,71,0.00,,,0.00,66.19,,2013-10-03 17:51:00,
2013-10-03 13:01:00,51.9,-99.9,30.02,NE,39,5.0,7.1,71,0.00,,,0.00,73.16,,2013-10-03 18:01:00,
2013-10-03 13:11:00,52.0,-99.9,30.03,North,0,5.0,8.8,71,0.00,,,0.00,71.33,,2013-10-03 18:11:00,
2013-10-03 13:21:00,52.0,-99.9,30.03,NW,315,6.0,12.1,71,0.00,,,0.00,71.75,,2013-10-03 18:21:00,
2013-10-03 13:31:00,52.0,-99.9,30.03,NE,39,8.0,13.8,71,0.00,,,0.00,72.01,,2013-10-03 18:31:00,
2013-10-03 13:41:00,52.1,-99.9,30.03,North,1,2.0,3.8,73,0.00,,,0.00,61.68,,2013-10-03 18:41:00,
2013-10-03 13:51:00,52.1,-99.9,30.03,NNE,21,6.0,8.8,71,0.00,,,0.00,67.72,,2013-10-03 18:51:00,
2013-10-03 14:01:00,51.8,-99.9,30.03,North,8,5.0,12.1,74,0.00,,,0.00,61.42,,2013-10-03 19:01:00,
2013-10-03 14:11:00,51.7,-99.9,30.03,NNE,22,5.0,8.8,75,0.00,,,0.00,60.93,,2013-10-03 19:11:00,
2013-10-03 14:21:00,51.5,-99.9,30.03,North,10,6.0,10.5,75,0.00,,,0.00,55.52,,2013-10-03 19:21:00,
2013-10-03 14:31:00,51.5,-99.9,30.02,NE,48,6.0,10.5,75,0.00,,,0.00,76.41,,2013-10-03 19:31:00,
2013-10-03 14:41:00,52.0,-99.9,30.02,North,4,6.0,10.5,72,0.00,,,0.00,85.6,,2013-10-03 19:41:00,
2013-10-03 14:51:00,52.2,-99.9,30.01,North,0,5.0,8.8,72,0.00,,,0.00,107.1,,2013-10-03 19:51:00,
2013-10-03 15:01:00,52.3,-99.9,30.01,NNW,331,6.0,10.5,72,0.00,,,0.00,91.9,,2013-10-03 20:01:00,
2013-10-03 15:11:00,52.0,-99.9,30.01,NNE,22,8.0,13.8,75,0.00,,,0.00,73.86,,2013-10-03 20:11:00,
2013-10-03 15:21:00,52.0,-99.9,30.01,North,0,7.0,12.1,74,0.00,,,0.00,66.66,,2013-10-03 20:21:00,
2013-10-03 15:31:00,52.2,-99.9,30.01,NE,38,4.0,10.5,74,0.00,,,0.00,74.33,,2013-10-03 20:31:00,
2013-10-03 15:41:00,52.6,-99.9,30.01,NE,39,6.0,12.1,72,0.00,,,0.00,88.4,,2013-10-03 20:41:00,
2013-10-03 15:51:00,52.7,-99.9,30.01,NNE,31,7.0,10.5,70,0.00,,,0.00,77.48,,2013-10-03 20:51:00,
2013-10-03 16:01:00,52.8,-99.9,30.02,North,4,5.0,7.1,69,0.00,,,0.00,83.2,,2013-10-03 21:01:00,
2013-10-03 16:11:00,52.9,-99.9,30.02,NNE,27,5.0,10.5,68,0.00,,,0.00,71.26,,2013-10-03 21:11:00,
2013-10-03 16:21:00,53.1,-99.9,30.02,NNE,19,6.0,13.8,67,0.00,,,0.00,109.3,,2013-10-03 21:21:00,
2013-10-03 16:31:00,53.1,-99.9,30.02,North,1,8.0,10.5,67,0.00,,,0.00,78.23,,2013-10-03 21:31:00,
2013-10-03 16:41:00,53.1,-99.9,30.03,NE,48,6.0,12.1,67,0.00,,,0.00,44.45,,2013-10-03 21:41:00,
2013-10-03 16:51:00,53.0,-99.9,30.03,North,1,5.0,10.5,68,0.00,,,0.00,32.03,,2013-10-03 21:51:00,
2013-10-03 17:01:00,53.0,-99.9,30.03,NNE,25,4.0,8.8,68,0.00,,,0.00,27.14,,2013-10-03 22:01:00,
2013-10-03 17:11:00,53.0,-99.9,30.03,NNE,24,5.0,10.5,69,0.00,,,0.00,29.18,,2013-10-03 22:11:00,
2013-10-03 17:21:00,52.9,-99.9,30.04,NNE,29,4.0,8.8,70,0.00,,,0.00,35.18,,2013-10-03 22:21:00,
2013-10-03 17:31:00,53.0,-99.9,30.04,NNE,15,6.0,12.1,68,0.00,,,0.00,33.07,,2013-10-03 22:31:00,
2013-10-03 17:41:00,52.8,-99.9,30.04,North,10,5.0,7.1,68,0.00,,,0.00,15.28,,2013-10-03 22:41:00,
2013-10-03 17:51:00,52.7,-99.9,30.05,NNE,22,6.0,10.5,68,0.00,,,0.00,16.08,,2013-10-03 22:51:00,
2013-10-03 18:01:00,52.7,-99.9,30.05,NNE,13,5.0,7.1,68,0.00,,,0.00,19.7,,2013-10-03 23:01:00,
2013-10-03 18:11:00,52.5,-99.9,30.05,North,4,8.0,13.8,68,0.00,,,0.00,25.27,,2013-10-03 23:11:00,
2013-10-03 18:21:00,52.4,-99.9,30.05,North,351,6.0,8.8,68,0.00,,,0.00,16.28,,2013-10-03 23:21:00,
2013-10-03 18:31:00,52.2,-99.9,30.05,NNE,14,6.0,10.5,69,0.00,,,0.00,11.7,,2013-10-03 23:31:00,
2013-10-03 18:41:00,52.0,-99.9,30.06,North,11,5.0,10.5,70,0.00,,,0.00,2.099,,2013-10-03 23:41:00,
2013-10-03 18:51:00,52.0,-99.9,30.06,NNW,345,8.0,13.8,71,0.00,,,0.00,2.437,,2013-10-03 23:51:00,
2013-10-03 19:01:00,52.0,-99.9,30.06,NE,44,7.0,12.1,72,0.00,,,0.00,1.696,,2013-10-04 00:01:00,
2013-10-03 19:11:00,51.8,-99.9,30.07,NNE,13,5.0,7.1,73,0.00,,,0.00,0.792,,2013-10-04 00:11:00,
2013-10-03 19:21:00,51.8,-99.9,30.08,NNE,32,3.0,5.4,74,0.00,,,0.00,0.081,,2013-10-04 00:21:00,
2013-10-03 19:31:00,51.8,-99.9,30.08,North,5,2.0,5.4,75,0.00,,,0.00,0,,2013-10-04 00:31:00,
2013-10-03 19:41:00,51.8,-99.9,30.08,NNE,22,5.0,7.1,73,0.00,,,0.00,0,,2013-10-04 00:41:00,
2013-10-03 19:51:00,51.8,-99.9,30.08,NNW,337,6.0,10.5,72,0.00,,,0.00,0,,2013-10-04 00:51:00,
2013-10-03 20:01:00,51.9,-99.9,30.08,North,350,3.0,7.1,71,0.00,,,0.00,0,,2013-10-04 01:01:00,
2013-10-03 20:11:00,51.9,-99.9,30.08,NNW,348,5.0,7.1,69,0.00,,,0.00,0,,2013-10-04 01:11:00,
2013-10-03 20:21:00,51.8,-99.9,30.08,North,351,6.0,12.1,68,0.00,,,0.00,0,,2013-10-04 01:21:00,
2013-10-03 20:31:00,52.0,-99.9,30.08,NE,55,4.0,7.1,68,0.00,,,0.00,0,,2013-10-04 01:31:00,
2013-10-03 20:41:00,52.2,-99.9,30.09,NNE,16,7.0,12.1,66,0.00,,,0.00,0,,2013-10-04 01:41:00,
2013-10-03 20:51:00,52.2,-99.9,30.09,NE,53,8.0,13.8,65,0.00,,,0.00,0,,2013-10-04 01:51:00,
2013-10-03 21:01:00,52.2,-99.9,30.10,North,4,5.0,8.8,65,0.00,,,0.00,0,,2013-10-04 02:01:00,
2013-10-03 21:11:00,52.0,-99.9,30.10,NNE,13,6.0,10.5,65,0.00,,,0.00,0,,2013-10-04 02:11:00,
2013-10-03 21:21:00,52.0,-99.9,30.10,NNE,23,6.0,12.1,65,0.00,,,0.00,0,,2013-10-04 02:21:00,
2013-10-03 21:31:00,51.9,-99.9,30.10,NNE,23,5.0,8.8,65,0.00,,,0.00,0,,2013-10-04 02:31:00,
2013-10-03 21:41:00,51.7,-99.9,30.10,North,351,4.0,8.8,66,0.00,,,0.00,0,,2013-10-04 02:41:00,
2013-10-03 21:51:00,51.5,-99.9,30.10,NNW,328,4.0,8.8,65,0.00,,,0.00,0,,2013-10-04 02:51:00,
2013-10-03 22:01:00,51.4,-99.9,30.10,NNE,24,7.0,10.5,65,0.00,,,0.00,0,,2013-10-04 03:01:00,
2013-10-03 22:11:00,51.1,-99.9,30.10,North,7,5.0,15.5,65,0.00,,,0.00,0,,2013-10-04 03:11:00,
2013-10-03 22:21:00,50.9,-99.9,30.10,NNW,329,6.0,13.8,65,0.00,,,0.00,0,,2013-10-04 03:21:00,
2013-10-03 22:31:00,50.6,-99.9,30.10,North,0,7.0,10.5,66,0.00,,,0.00,0,,2013-10-04 03:31:00,
2013-10-03 22:41:00,50.3,-99.9,30.10,NW,321,7.0,15.5,67,0.00,,,0.00,0,,2013-10-04 03:41:00,
2013-10-03 22:51:00,50.1,-99.9,30.11,NE,43,8.0,13.8,68,0.00,,,0.00,0,,2013-10-04 03:51:00,
2013-10-03 23:51:00,49.1,-99.9,30.12,NE,36,4.0,8.8,73,0.00,,,0.00,0,,2013-10-04 04:51:00,